Aérodrome :
LOGIN :

S'inscrire | Disclaimer

   EN    FR    IT 

 










Légende :    VFR   VFR Marginal   IFR   IFR Intensif   IFR Très Intensif
Visi : 
Plafond : 
>= 8 km
>= 3000ft
5 à 8 km
1000 à 3000 ft
1500m à 5 km
500 à 1000 ft
800 à 1500m
200 à 500 ft
< 800m
< 200 ft
Symboles :   Orages  Brouillard  Fortes neiges  Fortes précipitations  Vent > 20 kt
SIGMETs :   Divers  Orages  Givrage  Turbulence  Onde Orograph.  Cendres Volcan.






- Altitude de l'aérodrome : 44 ft
- Code IATA : SOU


EGHI - Southampton

DERNIER METAR :
  • 161020Z 24008KT 210V280 9999 FEW020 14/10 Q1003

METARs EXPIRÉS :
  • 160950Z 24007KT 210V270 9999 FEW017 SCT040 14/11 Q1003
  • 160920Z 23006KT 200V270 9999 FEW015 SCT030 13/10 Q1002
  • 160850Z 25005KT 200V300 9999 FEW015 SCT027 13/11 Q1002
  • 160820Z 26005KT 210V290 9999 VCSH FEW010 SCT020 13/11 Q1002
  • 160750Z 26010KT 9000 SCT010 SCT020 13/11 Q1001
  • 160720Z 25010KT 200V300 9000 -RA BKN008 15/14 Q1001

TAF TAF EGHI
Valide du 16 à 09h jusqu'au 16 à 18h UTC


160805Z 1609/1618 26008KT 9000 FEW008 BKN014
BECMG 1609/1612 9999 SCT030
ATIS : +44 23 8062 7103



MET'MAP, la Météo Aéronautique d'un coup d'oeil ! - Copyright ORBIFLY Décembre 2007 - Disclaimer

ORBIFLY MET'MAP TEAM :

Programmation & Développement : Alexandra Zaïnal
Conception & Développement : Baudouin d'Aumeries
Co-Programmation & Développement : Marc-Olivier Méhu
Soutien technique & logistique : Manuel Goepfert

Contact : metmap@orbifly.com




SOURCES & CREDITS :

   NOAA